Terminal Aerodrome Forecast
Issued by NWS

Home | Current Version | Previous Version | Text Only | Print | Product List | Glossary On
Versions: 1 2 3 4 5 6 7 8 9 10 11 12 13 14 15 16 17 18 19 20 21 22 23 24 25 26 27
359
FTUS45 KGGW 131124
TAFGDV
TAF
KGDV 131124Z 1312/1412 14007KT P6SM BKN080
     FM131600 17007KT P6SM VCSH BKN050
     FM131900 24009KT P6SM -RA OVC015
     FM132200 27010KT P6SM -RA OVC035
     FM140000 29015KT P6SM BKN120
     FM140700 27012KT P6SM SCT100
      AMD LTD TO CLD VIS AND WIND=

USA.gov is the U.S. government's official web portal to all federal, state and local government web resources and services.